Terminal Aerodrome Forecast
Issued by NWS

Home | Current Version | Previous Version | Graphics & Text | Print | Product List | Glossary On
Versions: 1 2 3 4 5 6 7 8 9 10 11 12 13 14 15 16 17 18 19 20 21 22 23 24 25 26 27 28 29 30 31 32 33 34
000
FTUS45 KGGW 212324
TAFOLF
TAF
KOLF 212324Z 2200/2224 26008KT P6SM SKC
     FM220300 27005KT P6SM SCT015
     FM220600 VRB04KT 4SM BR BKN010
     FM221000 VRB04KT 2SM BR BKN005
     FM221600 26009KT P6SM BKN010=

USA.gov is the U.S. government's official web portal to all federal, state and local government web resources and services.